sensor_id;sensor_type;location;lat;lon;timestamp;pressure;altitude;pressure_sealevel;temperature;humidity
32747;BME280;19118;50.860;13.662;2023-03-11T00:03:28;94390.81;;;0.58;100.00
32747;BME280;19118;50.860;13.662;2023-03-11T00:08:28;94392.19;;;0.41;100.00
32747;BME280;19118;50.860;13.662;2023-03-11T00:13:29;94384.78;;;0.38;100.00
32747;BME280;19118;50.860;13.662;2023-03-11T00:18:30;94420.34;;;0.31;100.00
32747;BME280;19118;50.860;13.662;2023-03-11T00:23:30;94431.69;;;0.10;100.00
32747;BME280;19118;50.860;13.662;2023-03-11T00:28:31;94431.50;;;0.05;100.00
32747;BME280;19118;50.860;13.662;2023-03-11T00:33:32;94456.66;;;-0.03;100.00
32747;BME280;19118;50.860;13.662;2023-03-11T00:38:32;94455.84;;;-0.03;100.00
32747;BME280;19118;50.860;13.662;2023-03-11T00:43:32;94461.63;;;-0.08;100.00
32747;BME280;19118;50.860;13.662;2023-03-11T00:48:33;94498.34;;;-0.17;100.00
32747;BME280;19118;50.860;13.662;2023-03-11T00:53:33;94491.31;;;-0.23;100.00
32747;BME280;19118;50.860;13.662;2023-03-11T00:58:34;94496.44;;;-0.37;100.00
32747;BME280;19118;50.860;13.662;2023-03-11T01:03:35;94509.69;;;-0.32;100.00
32747;BME280;19118;50.860;13.662;2023-03-11T01:08:36;94531.41;;;-0.39;100.00
32747;BME280;19118;50.860;13.662;2023-03-11T01:13:37;94533.56;;;-0.43;100.00
32747;BME280;19118;50.860;13.662;2023-03-11T01:18:39;94542.34;;;-0.44;100.00
32747;BME280;19118;50.860;13.662;2023-03-11T01:23:40;94541.56;;;-0.44;100.00
32747;BME280;19118;50.860;13.662;2023-03-11T01:28:41;94562.88;;;-0.49;100.00
32747;BME280;19118;50.860;13.662;2023-03-11T01:33:42;94578.63;;;-0.50;100.00
32747;BME280;19118;50.860;13.662;2023-03-11T01:38:42;94552.63;;;-0.57;100.00
32747;BME280;19118;50.860;13.662;2023-03-11T01:48:52;94584.16;;;-0.60;100.00
32747;BME280;19118;50.860;13.662;2023-03-11T01:53:55;94598.50;;;-0.64;100.00
32747;BME280;19118;50.860;13.662;2023-03-11T01:58:57;94614.31;;;-0.59;100.00
32747;BME280;19118;50.860;13.662;2023-03-11T02:03:58;94617.09;;;-0.61;100.00
32747;BME280;19118;50.860;13.662;2023-03-11T02:09:01;94626.19;;;-0.71;100.00
32747;BME280;19118;50.860;13.662;2023-03-11T02:14:05;94641.34;;;-0.75;100.00
32747;BME280;19118;50.860;13.662;2023-03-11T02:19:35;94646.81;;;-0.84;100.00
32747;BME280;19118;50.860;13.662;2023-03-11T02:25:02;94672.38;;;-1.03;100.00
32747;BME280;19118;50.860;13.662;2023-03-11T02:30:04;94682.41;;;-1.00;100.00
32747;BME280;19118;50.860;13.662;2023-03-11T02:35:09;94700.28;;;-1.05;100.00
32747;BME280;19118;50.860;13.662;2023-03-11T02:40:40;94709.78;;;-1.12;100.00
32747;BME280;19118;50.860;13.662;2023-03-11T02:45:44;94730.25;;;-1.17;100.00
32747;BME280;19118;50.860;13.662;2023-03-11T02:50:46;94741.09;;;-1.28;100.00
32747;BME280;19118;50.860;13.662;2023-03-11T02:55:48;94758.63;;;-1.30;100.00
32747;BME280;19118;50.860;13.662;2023-03-11T03:00:49;94776.50;;;-1.35;100.00
32747;BME280;19118;50.860;13.662;2023-03-11T03:05:51;94793.66;;;-1.34;100.00
32747;BME280;19118;50.860;13.662;2023-03-11T03:10:52;94817.19;;;-1.36;100.00
32747;BME280;19118;50.860;13.662;2023-03-11T03:15:54;94823.06;;;-1.42;100.00
32747;BME280;19118;50.860;13.662;2023-03-11T03:20:54;94850.03;;;-1.51;100.00
32747;BME280;19118;50.860;13.662;2023-03-11T03:25:55;94861.38;;;-1.52;100.00
32747;BME280;19118;50.860;13.662;2023-03-11T03:31:02;94885.69;;;-1.53;100.00
32747;BME280;19118;50.860;13.662;2023-03-11T03:36:08;94905.09;;;-1.72;100.00
32747;BME280;19118;50.860;13.662;2023-03-11T03:41:14;94921.09;;;-1.45;100.00
32747;BME280;19118;50.860;13.662;2023-03-11T03:46:15;94921.44;;;-1.71;100.00
32747;BME280;19118;50.860;13.662;2023-03-11T03:51:20;94921.00;;;-1.75;100.00
32747;BME280;19118;50.860;13.662;2023-03-11T03:56:44;94936.19;;;-1.72;100.00
32747;BME280;19118;50.860;13.662;2023-03-11T04:01:45;94941.44;;;-1.80;100.00
32747;BME280;19118;50.860;13.662;2023-03-11T04:06:46;94942.44;;;-1.81;100.00
32747;BME280;19118;50.860;13.662;2023-03-11T04:11:47;94949.72;;;-1.85;100.00
32747;BME280;19118;50.860;13.662;2023-03-11T04:16:49;94963.81;;;-1.87;100.00
32747;BME280;19118;50.860;13.662;2023-03-11T04:21:50;94967.03;;;-1.85;100.00
32747;BME280;19118;50.860;13.662;2023-03-11T04:26:52;94970.25;;;-1.83;100.00
32747;BME280;19118;50.860;13.662;2023-03-11T04:31:53;94999.63;;;-1.91;100.00
32747;BME280;19118;50.860;13.662;2023-03-11T04:36:54;95007.88;;;-1.95;100.00
32747;BME280;19118;50.860;13.662;2023-03-11T04:41:58;95016.63;;;-1.96;100.00
32747;BME280;19118;50.860;13.662;2023-03-11T04:47:00;95025.22;;;-1.96;100.00
32747;BME280;19118;50.860;13.662;2023-03-11T04:52:01;95022.16;;;-1.99;100.00
32747;BME280;19118;50.860;13.662;2023-03-11T04:57:01;95056.16;;;-2.02;100.00
32747;BME280;19118;50.860;13.662;2023-03-11T05:02:02;95057.78;;;-2.01;100.00
32747;BME280;19118;50.860;13.662;2023-03-11T05:07:03;95067.97;;;-2.00;100.00
32747;BME280;19118;50.860;13.662;2023-03-11T05:12:05;95100.31;;;-1.96;100.00
32747;BME280;19118;50.860;13.662;2023-03-11T05:17:08;95115.06;;;-2.05;100.00
32747;BME280;19118;50.860;13.662;2023-03-11T05:22:11;95112.47;;;-2.05;100.00
32747;BME280;19118;50.860;13.662;2023-03-11T05:27:12;95133.53;;;-2.08;100.00
32747;BME280;19118;50.860;13.662;2023-03-11T05:32:13;95156.66;;;-2.06;100.00
32747;BME280;19118;50.860;13.662;2023-03-11T05:37:16;95158.44;;;-2.07;100.00
32747;BME280;19118;50.860;13.662;2023-03-11T05:42:18;95173.00;;;-2.06;100.00
32747;BME280;19118;50.860;13.662;2023-03-11T05:47:20;95178.69;;;-2.10;100.00
32747;BME280;19118;50.860;13.662;2023-03-11T05:52:21;95181.56;;;-2.05;100.00
32747;BME280;19118;50.860;13.662;2023-03-11T05:57:23;95185.31;;;-2.08;100.00
32747;BME280;19118;50.860;13.662;2023-03-11T06:02:24;95202.47;;;-2.07;100.00
32747;BME280;19118;50.860;13.662;2023-03-11T06:07:25;95206.84;;;-2.07;100.00
32747;BME280;19118;50.860;13.662;2023-03-11T06:12:26;95229.50;;;-2.09;100.00
32747;BME280;19118;50.860;13.662;2023-03-11T06:17:41;95234.34;;;-2.06;100.00
32747;BME280;19118;50.860;13.662;2023-03-11T06:22:42;95242.91;;;-1.97;100.00
32747;BME280;19118;50.860;13.662;2023-03-11T06:27:47;95267.84;;;-1.96;100.00
32747;BME280;19118;50.860;13.662;2023-03-11T06:32:50;95272.38;;;-1.98;100.00
32747;BME280;19118;50.860;13.662;2023-03-11T06:37:50;95299.91;;;-1.97;100.00
32747;BME280;19118;50.860;13.662;2023-03-11T06:42:51;95308.00;;;-2.00;100.00
32747;BME280;19118;50.860;13.662;2023-03-11T06:47:54;95310.25;;;-1.97;100.00
32747;BME280;19118;50.860;13.662;2023-03-11T06:52:55;95330.66;;;-2.02;100.00
32747;BME280;19118;50.860;13.662;2023-03-11T06:57:56;95333.91;;;-1.92;100.00
32747;BME280;19118;50.860;13.662;2023-03-11T07:02:57;95339.38;;;-1.95;100.00
32747;BME280;19118;50.860;13.662;2023-03-11T07:07:58;95348.47;;;-1.99;100.00
32747;BME280;19118;50.860;13.662;2023-03-11T07:12:59;95382.44;;;-2.02;100.00
32747;BME280;19118;50.860;13.662;2023-03-11T07:18:00;95394.75;;;-1.96;100.00
32747;BME280;19118;50.860;13.662;2023-03-11T07:23:01;95410.47;;;-1.90;100.00
32747;BME280;19118;50.860;13.662;2023-03-11T07:28:01;95423.91;;;-1.86;100.00
32747;BME280;19118;50.860;13.662;2023-03-11T07:33:01;95426.50;;;-1.86;100.00
32747;BME280;19118;50.860;13.662;2023-03-11T07:38:02;95437.00;;;-1.96;100.00
32747;BME280;19118;50.860;13.662;2023-03-11T07:43:02;95435.22;;;-1.95;100.00
32747;BME280;19118;50.860;13.662;2023-03-11T07:48:03;95456.59;;;-1.85;100.00
32747;BME280;19118;50.860;13.662;2023-03-11T07:53:04;95468.63;;;-1.76;100.00
32747;BME280;19118;50.860;13.662;2023-03-11T07:58:04;95482.19;;;-1.90;100.00
32747;BME280;19118;50.860;13.662;2023-03-11T08:03:04;95491.13;;;-1.77;100.00
32747;BME280;19118;50.860;13.662;2023-03-11T08:08:05;95506.53;;;-1.67;100.00
32747;BME280;19118;50.860;13.662;2023-03-11T08:13:05;95512.16;;;-1.80;100.00
32747;BME280;19118;50.860;13.662;2023-03-11T08:18:05;95521.56;;;-1.70;100.00
32747;BME280;19118;50.860;13.662;2023-03-11T08:23:06;95535.72;;;-1.57;100.00
32747;BME280;19118;50.860;13.662;2023-03-11T08:28:07;95552.22;;;-1.50;100.00
32747;BME280;19118;50.860;13.662;2023-03-11T08:33:08;95575.94;;;-1.28;100.00
32747;BME280;19118;50.860;13.662;2023-03-11T08:38:08;95566.41;;;-0.95;100.00
32747;BME280;19118;50.860;13.662;2023-03-11T08:43:12;95582.81;;;-0.78;100.00
32747;BME280;19118;50.860;13.662;2023-03-11T08:48:12;95586.34;;;-0.79;100.00
32747;BME280;19118;50.860;13.662;2023-03-11T08:53:13;95598.19;;;-0.85;100.00
32747;BME280;19118;50.860;13.662;2023-03-11T08:58:13;95604.03;;;-0.75;100.00
32747;BME280;19118;50.860;13.662;2023-03-11T09:03:13;95614.56;;;-0.84;100.00
32747;BME280;19118;50.860;13.662;2023-03-11T09:08:14;95624.63;;;-0.73;100.00
32747;BME280;19118;50.860;13.662;2023-03-11T09:13:14;95626.59;;;-0.75;100.00
32747;BME280;19118;50.860;13.662;2023-03-11T09:18:16;95636.78;;;-0.57;100.00
32747;BME280;19118;50.860;13.662;2023-03-11T09:23:17;95651.06;;;-0.86;100.00
32747;BME280;19118;50.860;13.662;2023-03-11T09:28:18;95674.88;;;-0.99;100.00
32747;BME280;19118;50.860;13.662;2023-03-11T09:33:18;95687.47;;;-1.20;100.00
32747;BME280;19118;50.860;13.662;2023-03-11T09:38:18;95693.81;;;-1.06;100.00
32747;BME280;19118;50.860;13.662;2023-03-11T09:43:34;95699.50;;;-1.03;100.00
32747;BME280;19118;50.860;13.662;2023-03-11T09:49:16;95697.25;;;-0.98;100.00
32747;BME280;19118;50.860;13.662;2023-03-11T09:54:20;95710.28;;;-0.73;100.00
32747;BME280;19118;50.860;13.662;2023-03-11T09:59:29;95715.81;;;-0.76;100.00
32747;BME280;19118;50.860;13.662;2023-03-11T10:04:38;95731.38;;;-0.68;100.00
32747;BME280;19118;50.860;13.662;2023-03-11T10:09:47;95726.88;;;-0.50;100.00
32747;BME280;19118;50.860;13.662;2023-03-11T10:14:55;95728.66;;;-0.26;100.00
32747;BME280;19118;50.860;13.662;2023-03-11T10:20:09;95742.44;;;-0.50;100.00
32747;BME280;19118;50.860;13.662;2023-03-11T10:25:23;95753.13;;;-0.61;100.00
32747;BME280;19118;50.860;13.662;2023-03-11T10:30:39;95757.94;;;-0.82;100.00
32747;BME280;19118;50.860;13.662;2023-03-11T10:35:45;95765.09;;;-0.76;100.00
32747;BME280;19118;50.860;13.662;2023-03-11T10:40:50;95765.75;;;-0.74;100.00
32747;BME280;19118;50.860;13.662;2023-03-11T10:45:53;95782.81;;;-0.64;100.00
32747;BME280;19118;50.860;13.662;2023-03-11T10:51:03;95783.56;;;-0.79;100.00
32747;BME280;19118;50.860;13.662;2023-03-11T10:56:36;95786.56;;;-0.58;100.00
32747;BME280;19118;50.860;13.662;2023-03-11T11:01:36;95797.19;;;-0.27;100.00
32747;BME280;19118;50.860;13.662;2023-03-11T11:06:37;95804.19;;;0.05;100.00
32747;BME280;19118;50.860;13.662;2023-03-11T11:11:37;95817.94;;;-0.35;100.00
32747;BME280;19118;50.860;13.662;2023-03-11T11:16:39;95817.75;;;-0.50;100.00
32747;BME280;19118;50.860;13.662;2023-03-11T11:21:42;95821.63;;;-0.46;100.00
32747;BME280;19118;50.860;13.662;2023-03-11T11:32:16;95833.69;;;-0.28;100.00
32747;BME280;19118;50.860;13.662;2023-03-11T11:37:20;95830.50;;;0.18;100.00
32747;BME280;19118;50.860;13.662;2023-03-11T11:42:23;95848.06;;;0.16;100.00
32747;BME280;19118;50.860;13.662;2023-03-11T11:47:29;95850.66;;;0.08;100.00
32747;BME280;19118;50.860;13.662;2023-03-11T11:52:52;95861.06;;;0.33;100.00
32747;BME280;19118;50.860;13.662;2023-03-11T11:57:55;95867.91;;;0.25;100.00
32747;BME280;19118;50.860;13.662;2023-03-11T12:03:27;95884.16;;;0.36;100.00
32747;BME280;19118;50.860;13.662;2023-03-11T12:08:41;95882.00;;;0.15;100.00
32747;BME280;19118;50.860;13.662;2023-03-11T12:29:30;95888.38;;;0.61;100.00
32747;BME280;19118;50.860;13.662;2023-03-11T12:34:34;95879.63;;;0.46;100.00
32747;BME280;19118;50.860;13.662;2023-03-11T12:39:35;95884.00;;;0.70;100.00
32747;BME280;19118;50.860;13.662;2023-03-11T12:44:36;95885.69;;;1.10;100.00
32747;BME280;19118;50.860;13.662;2023-03-11T12:49:38;95886.91;;;0.83;100.00
32747;BME280;19118;50.860;13.662;2023-03-11T12:54:41;95894.88;;;0.81;100.00
32747;BME280;19118;50.860;13.662;2023-03-11T13:25:41;95920.84;;;1.14;100.00
32747;BME280;19118;50.860;13.662;2023-03-11T13:31:09;95929.94;;;1.26;100.00
32747;BME280;19118;50.860;13.662;2023-03-11T13:41:25;95949.66;;;0.55;100.00
32747;BME280;19118;50.860;13.662;2023-03-11T13:46:34;95959.41;;;0.62;100.00
32747;BME280;19118;50.860;13.662;2023-03-11T13:51:41;95963.16;;;1.16;100.00
32747;BME280;19118;50.860;13.662;2023-03-11T13:56:44;95965.44;;;1.03;100.00
32747;BME280;19118;50.860;13.662;2023-03-11T14:01:50;95982.69;;;0.79;100.00
32747;BME280;19118;50.860;13.662;2023-03-11T14:06:50;95986.69;;;0.41;100.00
32747;BME280;19118;50.860;13.662;2023-03-11T14:11:52;95990.28;;;0.40;100.00
32747;BME280;19118;50.860;13.662;2023-03-11T14:16:53;96002.72;;;0.20;100.00
32747;BME280;19118;50.860;13.662;2023-03-11T14:21:54;96012.16;;;0.21;100.00
32747;BME280;19118;50.860;13.662;2023-03-11T14:27:01;96013.78;;;0.22;100.00
32747;BME280;19118;50.860;13.662;2023-03-11T14:32:28;96014.16;;;0.36;100.00
32747;BME280;19118;50.860;13.662;2023-03-11T14:37:36;96012.75;;;0.07;100.00
32747;BME280;19118;50.860;13.662;2023-03-11T14:42:38;96021.16;;;-0.07;100.00
32747;BME280;19118;50.860;13.662;2023-03-11T14:52:51;96037.13;;;0.06;100.00
32747;BME280;19118;50.860;13.662;2023-03-11T14:57:57;96039.84;;;-0.04;100.00
32747;BME280;19118;50.860;13.662;2023-03-11T15:08:16;96048.69;;;0.12;100.00
32747;BME280;19118;50.860;13.662;2023-03-11T15:13:17;96053.53;;;0.07;100.00
32747;BME280;19118;50.860;13.662;2023-03-11T15:18:23;96063.91;;;-0.27;100.00
32747;BME280;19118;50.860;13.662;2023-03-11T15:23:24;96064.69;;;-0.01;100.00
32747;BME280;19118;50.860;13.662;2023-03-11T15:28:29;96064.06;;;0.05;100.00
32747;BME280;19118;50.860;13.662;2023-03-11T15:33:32;96076.28;;;-0.21;100.00
32747;BME280;19118;50.860;13.662;2023-03-11T15:38:32;96084.69;;;-0.27;100.00
32747;BME280;19118;50.860;13.662;2023-03-11T15:43:47;96100.31;;;-0.45;100.00
32747;BME280;19118;50.860;13.662;2023-03-11T15:48:47;96097.81;;;-0.55;100.00
32747;BME280;19118;50.860;13.662;2023-03-11T15:53:48;96114.22;;;-0.90;100.00
32747;BME280;19118;50.860;13.662;2023-03-11T15:58:48;96114.53;;;-0.75;100.00
32747;BME280;19118;50.860;13.662;2023-03-11T16:03:48;96114.72;;;-0.69;100.00
32747;BME280;19118;50.860;13.662;2023-03-11T16:08:49;96126.00;;;-0.60;100.00
32747;BME280;19118;50.860;13.662;2023-03-11T16:13:49;96119.91;;;-0.69;100.00
32747;BME280;19118;50.860;13.662;2023-03-11T16:18:49;96132.06;;;-0.69;100.00
32747;BME280;19118;50.860;13.662;2023-03-11T16:23:50;96142.03;;;-0.82;100.00
32747;BME280;19118;50.860;13.662;2023-03-11T16:28:50;96146.69;;;-0.86;100.00
32747;BME280;19118;50.860;13.662;2023-03-11T16:33:51;96152.41;;;-0.82;100.00
32747;BME280;19118;50.860;13.662;2023-03-11T16:38:51;96151.06;;;-0.86;100.00
32747;BME280;19118;50.860;13.662;2023-03-11T16:43:52;96157.38;;;-0.89;100.00
32747;BME280;19118;50.860;13.662;2023-03-11T16:48:52;96166.13;;;-0.90;100.00
32747;BME280;19118;50.860;13.662;2023-03-11T16:53:53;96166.19;;;-1.00;100.00
32747;BME280;19118;50.860;13.662;2023-03-11T16:58:53;96179.16;;;-1.00;100.00
32747;BME280;19118;50.860;13.662;2023-03-11T17:03:53;96185.44;;;-1.02;100.00
32747;BME280;19118;50.860;13.662;2023-03-11T17:08:54;96193.91;;;-1.28;100.00
32747;BME280;19118;50.860;13.662;2023-03-11T17:13:55;96204.13;;;-1.54;100.00
32747;BME280;19118;50.860;13.662;2023-03-11T17:18:55;96215.22;;;-1.71;100.00
32747;BME280;19118;50.860;13.662;2023-03-11T17:23:56;96211.59;;;-1.78;100.00
32747;BME280;19118;50.860;13.662;2023-03-11T17:28:58;96221.28;;;-1.80;100.00
32747;BME280;19118;50.860;13.662;2023-03-11T17:33:58;96224.41;;;-1.86;100.00
32747;BME280;19118;50.860;13.662;2023-03-11T17:38:59;96222.56;;;-2.03;100.00
32747;BME280;19118;50.860;13.662;2023-03-11T17:43:59;96222.00;;;-2.17;100.00
32747;BME280;19118;50.860;13.662;2023-03-11T17:48:59;96219.03;;;-2.41;100.00
32747;BME280;19118;50.860;13.662;2023-03-11T17:54:00;96226.63;;;-2.49;100.00
32747;BME280;19118;50.860;13.662;2023-03-11T17:59:00;96235.63;;;-2.53;100.00
32747;BME280;19118;50.860;13.662;2023-03-11T18:04:00;96234.69;;;-2.62;100.00
32747;BME280;19118;50.860;13.662;2023-03-11T18:09:01;96256.06;;;-2.70;100.00
32747;BME280;19118;50.860;13.662;2023-03-11T18:14:01;96255.22;;;-2.89;100.00
32747;BME280;19118;50.860;13.662;2023-03-11T18:19:01;96259.84;;;-2.93;100.00
32747;BME280;19118;50.860;13.662;2023-03-11T18:24:02;96261.41;;;-3.11;100.00
32747;BME280;19118;50.860;13.662;2023-03-11T18:29:02;96273.31;;;-3.30;100.00
32747;BME280;19118;50.860;13.662;2023-03-11T18:34:03;96277.28;;;-3.56;100.00
32747;BME280;19118;50.860;13.662;2023-03-11T18:39:04;96290.88;;;-3.75;100.00
32747;BME280;19118;50.860;13.662;2023-03-11T18:44:06;96286.56;;;-3.95;100.00
32747;BME280;19118;50.860;13.662;2023-03-11T18:49:06;96297.00;;;-3.97;100.00
32747;BME280;19118;50.860;13.662;2023-03-11T18:54:07;96301.53;;;-4.10;100.00
32747;BME280;19118;50.860;13.662;2023-03-11T18:59:08;96303.16;;;-4.09;100.00
32747;BME280;19118;50.860;13.662;2023-03-11T19:04:09;96305.00;;;-4.00;100.00
32747;BME280;19118;50.860;13.662;2023-03-11T19:09:10;96310.75;;;-3.96;100.00
32747;BME280;19118;50.860;13.662;2023-03-11T19:14:10;96312.09;;;-4.13;100.00
32747;BME280;19118;50.860;13.662;2023-03-11T19:19:11;96311.91;;;-4.21;100.00
32747;BME280;19118;50.860;13.662;2023-03-11T19:24:12;96312.72;;;-4.21;100.00
32747;BME280;19118;50.860;13.662;2023-03-11T19:29:13;96318.94;;;-4.23;100.00
32747;BME280;19118;50.860;13.662;2023-03-11T19:34:13;96324.41;;;-4.37;100.00
32747;BME280;19118;50.860;13.662;2023-03-11T19:39:14;96324.03;;;-4.33;100.00
32747;BME280;19118;50.860;13.662;2023-03-11T19:44:14;96325.00;;;-4.45;100.00
32747;BME280;19118;50.860;13.662;2023-03-11T19:49:15;96331.38;;;-4.60;100.00
32747;BME280;19118;50.860;13.662;2023-03-11T19:54:15;96331.13;;;-4.57;100.00
32747;BME280;19118;50.860;13.662;2023-03-11T19:59:16;96329.38;;;-4.57;100.00
32747;BME280;19118;50.860;13.662;2023-03-11T20:04:16;96335.22;;;-4.55;100.00
32747;BME280;19118;50.860;13.662;2023-03-11T20:09:17;96342.53;;;-4.60;100.00
32747;BME280;19118;50.860;13.662;2023-03-11T20:14:18;96341.22;;;-4.65;100.00
32747;BME280;19118;50.860;13.662;2023-03-11T20:19:19;96342.78;;;-4.63;100.00
32747;BME280;19118;50.860;13.662;2023-03-11T20:24:20;96340.28;;;-4.64;100.00
32747;BME280;19118;50.860;13.662;2023-03-11T20:29:20;96352.47;;;-4.66;100.00
32747;BME280;19118;50.860;13.662;2023-03-11T20:34:21;96348.38;;;-4.69;100.00
32747;BME280;19118;50.860;13.662;2023-03-11T20:39:21;96350.94;;;-4.47;100.00
32747;BME280;19118;50.860;13.662;2023-03-11T20:44:22;96354.06;;;-4.43;100.00
32747;BME280;19118;50.860;13.662;2023-03-11T20:49:22;96355.41;;;-4.49;100.00
32747;BME280;19118;50.860;13.662;2023-03-11T20:54:22;96354.22;;;-4.56;100.00
32747;BME280;19118;50.860;13.662;2023-03-11T20:59:23;96349.56;;;-4.62;100.00
32747;BME280;19118;50.860;13.662;2023-03-11T21:04:23;96357.16;;;-4.49;100.00
32747;BME280;19118;50.860;13.662;2023-03-11T21:09:24;96361.25;;;-4.47;100.00
32747;BME280;19118;50.860;13.662;2023-03-11T21:14:24;96352.75;;;-4.26;100.00
32747;BME280;19118;50.860;13.662;2023-03-11T21:19:24;96355.72;;;-4.42;100.00
32747;BME280;19118;50.860;13.662;2023-03-11T21:24:25;96349.84;;;-4.44;100.00
32747;BME280;19118;50.860;13.662;2023-03-11T21:29:25;96349.28;;;-4.48;100.00
32747;BME280;19118;50.860;13.662;2023-03-11T21:34:26;96344.88;;;-4.68;100.00
32747;BME280;19118;50.860;13.662;2023-03-11T21:39:26;96347.34;;;-4.78;100.00
32747;BME280;19118;50.860;13.662;2023-03-11T21:44:26;96347.22;;;-4.87;100.00
32747;BME280;19118;50.860;13.662;2023-03-11T21:49:27;96346.09;;;-4.94;100.00
32747;BME280;19118;50.860;13.662;2023-03-11T21:54:27;96345.25;;;-4.84;100.00
32747;BME280;19118;50.860;13.662;2023-03-11T21:59:28;96336.91;;;-4.76;100.00
32747;BME280;19118;50.860;13.662;2023-03-11T22:04:30;96335.53;;;-4.91;100.00
32747;BME280;19118;50.860;13.662;2023-03-11T22:09:30;96342.31;;;-5.02;100.00
32747;BME280;19118;50.860;13.662;2023-03-11T22:14:31;96343.84;;;-4.99;100.00
32747;BME280;19118;50.860;13.662;2023-03-11T22:19:31;96354.06;;;-4.97;100.00
32747;BME280;19118;50.860;13.662;2023-03-11T22:24:31;96362.94;;;-5.02;100.00
32747;BME280;19118;50.860;13.662;2023-03-11T22:29:32;96357.09;;;-4.92;100.00
32747;BME280;19118;50.860;13.662;2023-03-11T22:34:32;96359.66;;;-5.04;100.00
32747;BME280;19118;50.860;13.662;2023-03-11T22:39:33;96366.34;;;-5.01;100.00
32747;BME280;19118;50.860;13.662;2023-03-11T22:44:33;96367.03;;;-4.99;100.00
32747;BME280;19118;50.860;13.662;2023-03-11T22:49:33;96371.88;;;-5.06;100.00
32747;BME280;19118;50.860;13.662;2023-03-11T22:54:35;96373.88;;;-5.09;100.00
32747;BME280;19118;50.860;13.662;2023-03-11T22:59:36;96370.94;;;-5.05;100.00
32747;BME280;19118;50.860;13.662;2023-03-11T23:04:36;96373.00;;;-4.99;100.00
32747;BME280;19118;50.860;13.662;2023-03-11T23:09:37;96363.66;;;-5.11;100.00
32747;BME280;19118;50.860;13.662;2023-03-11T23:14:37;96375.59;;;-5.10;100.00
32747;BME280;19118;50.860;13.662;2023-03-11T23:19:38;96378.16;;;-5.10;100.00
32747;BME280;19118;50.860;13.662;2023-03-11T23:24:38;96385.00;;;-5.09;100.00
32747;BME280;19118;50.860;13.662;2023-03-11T23:29:38;96379.72;;;-5.07;100.00
32747;BME280;19118;50.860;13.662;2023-03-11T23:34:38;96381.00;;;-5.13;100.00
32747;BME280;19118;50.860;13.662;2023-03-11T23:39:39;96383.81;;;-5.05;100.00
32747;BME280;19118;50.860;13.662;2023-03-11T23:44:39;96388.41;;;-4.97;100.00
32747;BME280;19118;50.860;13.662;2023-03-11T23:49:40;96381.22;;;-5.05;100.00
32747;BME280;19118;50.860;13.662;2023-03-11T23:54:40;96397.53;;;-4.93;100.00
32747;BME280;19118;50.860;13.662;2023-03-11T23:59:41;96399.03;;;-5.02;100.00
